Time;durP1;ratioP1;P1;durP2;ratioP2;P2;SDS_P1;SDS_P2;PMS_P1;PMS_P2;Temp;Humidity;BMP_temperature;BMP_pressure;BME280_temperature;BME280_humidity;BME280_pressure;Samples;Min_cycle;Max_cycle;Signal;HPM_P1;HPM_P2
2023/06/25 00:04:46;;;;;;;3.63;3.30;;;;;;;21.43;83.74;101840.22;21069792;28;20105;-64
2023/06/25 00:14:48;;;;;;;3.50;3.20;;;;;;;21.41;83.90;101831.34;21069158;28;20148;-64
2023/06/25 00:24:50;;;;;;;4.57;4.18;;;;;;;21.41;83.90;101822.38;21068550;28;20052;-64
2023/06/25 00:34:57;;;;;;;4.15;3.75;;;;;;;21.37;83.55;101819.06;21051043;28;20074;-64
2023/06/25 00:45:00;;;;;;;4.10;3.58;;;;;;;21.36;83.64;101821.94;21039541;28;20101;-64
2023/06/25 00:55:01;;;;;;;4.35;3.95;;;;;;;21.35;83.68;101814.81;21049119;28;20419;-64
2023/06/25 01:05:06;;;;;;;4.38;3.97;;;;;;;21.32;83.58;101812.38;21066817;28;20464;-64
2023/06/25 01:15:09;;;;;;;4.57;4.18;;;;;;;21.29;83.69;101808.09;21066102;28;20048;-64
2023/06/25 01:25:11;;;;;;;4.82;4.22;;;;;;;21.24;83.55;101792.25;21063861;28;20565;-64
2023/06/25 01:35:14;;;;;;;4.43;4.00;;;;;;;21.25;83.87;101788.56;21064294;28;20074;-64
2023/06/25 01:45:16;;;;;;;4.20;3.78;;;;;;;21.24;83.30;101777.84;21029595;28;20412;-64
2023/06/25 01:55:18;;;;;;;4.65;4.13;;;;;;;21.23;83.26;101765.31;21080520;28;20134;-64
2023/06/25 02:05:19;;;;;;;4.43;4.03;;;;;;;21.22;83.13;101756.34;21045814;28;20130;-64
2023/06/25 02:15:21;;;;;;;5.55;4.60;;;;;;;21.20;82.83;101738.50;21060957;28;20470;-64
2023/06/25 02:25:22;;;;;;;4.72;4.32;;;;;;;21.19;82.81;101726.78;21060260;28;20051;-64
2023/06/25 02:35:24;;;;;;;5.10;4.60;;;;;;;21.18;82.67;101714.25;20980696;28;20101;-64
2023/06/25 02:45:26;;;;;;;4.80;4.38;;;;;;;21.17;82.57;101709.00;21036269;28;20066;-64
2023/06/25 02:55:28;;;;;;;4.13;3.72;;;;;;;21.15;82.29;101709.13;21075238;28;20048;-64
2023/06/25 03:05:30;;;;;;;4.30;3.83;;;;;;;21.14;82.35;101705.56;21055379;28;20185;-64
2023/06/25 03:15:32;;;;;;;4.60;4.20;;;;;;;21.09;82.28;101686.19;21056751;28;20040;-64
2023/06/25 03:25:34;;;;;;;5.63;4.35;;;;;;;21.10;82.34;101698.72;21034053;28;20044;-65
2023/06/25 03:35:48;;;;;;;8.35;7.20;;;;;;;20.94;80.59;101688.41;20973467;28;20039;-65
2023/06/25 03:45:50;;;;;;;9.57;7.60;;;;;;;20.80;81.12;101686.09;21068764;28;20052;-65
2023/06/25 03:55:53;;;;;;;9.15;7.65;;;;;;;20.68;81.76;101678.00;21052680;28;20048;-65
2023/06/25 04:05:54;;;;;;;9.15;8.07;;;;;;;20.60;82.23;101680.56;21070052;28;20139;-64
2023/06/25 04:15:56;;;;;;;10.38;8.45;;;;;;;20.56;83.65;101684.53;21051922;28;20094;-65
2023/06/25 04:25:58;;;;;;;11.52;9.20;;;;;;;20.53;84.97;101674.81;21050647;28;20044;-65
2023/06/25 04:36:00;;;;;;;11.13;9.48;;;;;;;20.51;86.42;101676.81;21012347;28;20146;-65
2023/06/25 04:46:02;;;;;;;9.30;8.40;;;;;;;20.49;87.60;101686.06;21049215;28;20496;-65
2023/06/25 04:56:04;;;;;;;13.57;10.68;;;;;;;20.51;89.47;101675.97;21048839;28;20121;-65
2023/06/25 05:06:06;;;;;;;11.10;8.73;;;;;;;20.49;91.36;101672.53;21048765;28;20067;-65
2023/06/25 05:16:07;;;;;;;10.57;9.48;;;;;;;20.49;93.27;101678.78;21065886;28;20044;-65
2023/06/25 05:26:09;;;;;;;11.45;9.45;;;;;;;20.49;95.38;101676.06;21046271;28;20445;-65
2023/06/25 05:36:12;;;;;;;12.02;9.35;;;;;;;20.48;94.69;101666.25;20968357;28;20044;-65
2023/06/25 05:46:14;;;;;;;10.50;8.38;;;;;;;20.51;93.22;101662.44;20880944;28;20044;-64
2023/06/25 05:56:15;;;;;;;9.82;8.65;;;;;;;20.54;93.70;101659.47;20927261;28;20701;-65
2023/06/25 06:06:18;;;;;;;9.02;7.25;;;;;;;20.55;92.61;101639.53;20905176;28;20045;-64
2023/06/25 06:16:19;;;;;;;8.18;6.22;;;;;;;20.58;91.95;101645.53;20933101;28;20122;-64
2023/06/25 06:26:21;;;;;;;6.68;5.63;;;;;;;20.62;92.17;101635.28;20977849;28;20394;-63
2023/06/25 06:36:23;;;;;;;6.47;5.45;;;;;;;20.67;92.62;101630.31;20978848;28;20054;-63
2023/06/25 06:46:24;;;;;;;5.18;4.68;;;;;;;20.75;93.15;101623.34;20989639;28;20450;-65
2023/06/25 06:56:26;;;;;;;5.53;5.03;;;;;;;20.78;93.91;101610.41;20994839;28;20106;-63
2023/06/25 07:06:28;;;;;;;7.45;4.70;;;;;;;20.86;94.05;101620.59;20981749;28;20089;-64
2023/06/25 07:16:30;;;;;;;5.50;4.72;;;;;;;20.91;94.18;101618.31;20966567;28;20082;-64
2023/06/25 07:26:31;;;;;;;5.15;4.65;;;;;;;20.92;94.34;101611.91;20934090;28;20045;-63
2023/06/25 07:36:33;;;;;;;7.35;5.63;;;;;;;20.93;95.00;101604.63;20948589;28;20131;-64
2023/06/25 07:46:34;;;;;;;6.40;5.47;;;;;;;20.98;94.83;101597.81;20912682;28;20114;-63
2023/06/25 07:56:36;;;;;;;7.45;5.50;;;;;;;21.03;94.61;101580.28;20932284;28;20501;-63
2023/06/25 08:06:38;;;;;;;5.32;4.82;;;;;;;21.12;94.11;101592.97;20970131;28;20044;-63
2023/06/25 08:16:39;;;;;;;6.75;5.15;;;;;;;21.17;94.10;101579.88;20965535;28;20049;-63
2023/06/25 08:26:41;;;;;;;6.43;5.45;;;;;;;21.27;93.69;101583.47;20943473;28;20136;-63
2023/06/25 08:36:43;;;;;;;6.75;5.13;;;;;;;21.38;93.73;101577.03;20983892;28;20080;-63
2023/06/25 08:46:52;;;;;;;7.38;5.25;;;;;;;21.44;93.83;101570.19;20936042;28;20057;-63
2023/06/25 08:56:54;;;;;;;5.47;4.70;;;;;;;21.50;93.82;101556.06;20930723;28;20040;-66
2023/06/25 09:07:04;;;;;;;6.93;5.13;;;;;;;21.52;93.90;101548.66;20966633;28;20102;-66
2023/06/25 09:17:06;;;;;;;7.22;5.10;;;;;;;21.53;92.59;101544.94;20948813;28;20087;-66
2023/06/25 09:27:09;;;;;;;6.15;4.85;;;;;;;21.53;92.46;101536.81;20977300;28;20047;-64
2023/06/25 09:37:11;;;;;;;5.63;4.93;;;;;;;21.39;91.96;101497.47;20950881;28;20052;-65
2023/06/25 09:47:13;;;;;;;6.25;4.82;;;;;;;21.51;91.29;101514.44;21023476;28;20056;-64
2023/06/25 09:57:18;;;;;;;5.45;4.32;;;;;;;21.57;90.17;101516.56;20987206;28;20055;-65
2023/06/25 10:07:21;;;;;;;;;;;;;;;21.57;88.95;101505.72;21027571;28;20048;-65
2023/06/25 10:17:23;;;;;;;4.25;3.85;;;;;;;21.56;88.38;101493.16;20975030;28;20003;-65
2023/06/25 10:27:26;;;;;;;4.30;3.40;;;;;;;21.55;87.97;101480.63;21033324;28;20057;-65
2023/06/25 10:37:33;;;;;;;5.53;4.40;;;;;;;21.55;87.54;101469.78;20991655;28;20503;-65
2023/06/25 10:47:35;;;;;;;4.70;3.78;;;;;;;21.55;86.87;101458.94;20990134;28;20447;-65
2023/06/25 10:57:37;;;;;;;4.43;3.60;;;;;;;21.56;86.27;101451.69;20933563;28;20409;-65
2023/06/25 11:07:39;;;;;;;3.97;3.58;;;;;;;21.56;85.54;101447.13;20913796;28;20071;-65
2023/06/25 11:17:40;;;;;;;3.80;3.40;;;;;;;21.56;85.01;101438.97;20912621;28;20052;-65
2023/06/25 11:27:42;;;;;;;4.38;3.40;;;;;;;21.55;84.43;101429.16;21014674;28;20626;-65
2023/06/25 11:37:45;;;;;;;3.17;2.85;;;;;;;21.56;84.33;101417.31;21035295;28;20079;-64
2023/06/25 11:47:53;;;;;;;3.58;3.28;;;;;;;21.56;83.83;101406.47;20936936;28;20047;-64
2023/06/25 11:57:55;;;;;;;4.03;3.00;;;;;;;21.54;83.70;101392.22;20955844;28;20049;-64
2023/06/25 12:07:57;;;;;;;4.03;3.00;;;;;;;21.61;83.70;101394.34;20958769;28;20074;-64
2023/06/25 12:17:58;;;;;;;3.72;2.83;;;;;;;21.64;83.95;101380.53;21029731;28;20140;-64
2023/06/25 12:28:00;;;;;;;3.10;2.78;;;;;;;21.64;83.99;101362.41;20971983;28;20064;-64
2023/06/25 12:38:02;;;;;;;2.95;2.65;;;;;;;21.67;84.17;101355.88;20962322;28;20058;-64
2023/06/25 12:48:04;;;;;;;3.40;3.10;;;;;;;21.67;83.49;101350.44;20923779;28;20071;-64
2023/06/25 12:58:06;;;;;;;4.85;3.28;;;;;;;21.68;84.32;101330.47;20917735;28;20056;-65
2023/06/25 13:08:07;;;;;;;3.42;3.13;;;;;;;21.70;84.63;101331.19;20936408;28;20135;-65
2023/06/25 13:18:09;;;;;;;4.28;3.00;;;;;;;21.70;84.66;101315.75;20954453;28;20570;-64
2023/06/25 13:28:11;;;;;;;4.53;3.60;;;;;;;21.73;84.74;101309.19;20962155;28;20043;-65
2023/06/25 13:38:12;;;;;;;3.58;3.25;;;;;;;21.73;86.60;101298.34;20988029;28;20099;-64
2023/06/25 13:48:14;;;;;;;5.10;3.60;;;;;;;21.74;86.45;101297.34;20951543;28;20135;-66
2023/06/25 13:58:16;;;;;;;5.10;3.28;;;;;;;21.73;86.11;101282.94;20937267;28;20060;-66
2023/06/25 14:08:17;;;;;;;4.55;3.20;;;;;;;21.74;84.87;101262.13;20947455;28;20128;-66
2023/06/25 14:18:20;;;;;;;4.93;3.80;;;;;;;21.74;84.30;101254.00;20922068;28;20059;-66
2023/06/25 14:28:21;;;;;;;4.40;3.10;;;;;;;21.75;83.83;101250.28;20932437;28;20052;-65
2023/06/25 14:38:23;;;;;;;3.72;2.97;;;;;;;21.76;83.98;101233.00;20945121;28;20052;-67
2023/06/25 14:48:24;;;;;;;4.13;3.40;;;;;;;21.78;84.57;101238.25;20930647;28;20037;-68
2023/06/25 14:58:26;;;;;;;5.40;3.45;;;;;;;21.76;84.28;101224.00;20920179;28;20045;-68
2023/06/25 15:08:28;;;;;;;4.38;3.70;;;;;;;21.74;84.29;101216.06;20920550;28;20033;-67
2023/06/25 15:18:30;;;;;;;7.70;3.40;;;;;;;21.73;84.00;101206.22;20937378;28;20115;-68
2023/06/25 15:28:31;;;;;;;6.10;3.30;;;;;;;21.73;84.14;101185.38;20920146;28;20040;-70
2023/06/25 15:38:33;;;;;;;3.55;3.25;;;;;;;21.72;83.98;101185.53;20926992;28;20128;-66
2023/06/25 15:48:35;;;;;;;5.88;3.55;;;;;;;21.76;83.22;101178.81;20971077;28;20045;-76
2023/06/25 15:58:36;;;;;;;4.28;3.25;;;;;;;21.77;83.83;101166.97;20930848;28;20045;-74
2023/06/25 16:08:38;;;;;;;3.90;3.50;;;;;;;21.77;82.95;101157.97;20947600;28;20136;-76
2023/06/25 16:18:40;;;;;;;4.72;3.30;;;;;;;21.76;83.16;101143.59;20925921;28;20044;-73
2023/06/25 16:28:41;;;;;;;4.03;3.58;;;;;;;21.79;83.96;101148.69;20936953;28;20128;-72
2023/06/25 16:38:43;;;;;;;4.20;3.30;;;;;;;21.79;83.56;101136.97;20973682;28;20127;-74
2023/06/25 16:48:45;;;;;;;4.07;3.67;;;;;;;21.73;83.25;101116.81;20973388;28;20512;-80
2023/06/25 16:58:47;;;;;;;4.18;3.72;;;;;;;21.76;83.49;101110.19;20946133;28;20056;-79
2023/06/25 17:08:49;;;;;;;5.45;3.85;;;;;;;21.74;83.12;101102.25;20882934;28;20088;-79
2023/06/25 17:18:50;;;;;;;5.07;4.07;;;;;;;21.72;83.09;101105.09;20976856;28;20040;-81
2023/06/25 17:28:52;;;;;;;4.03;3.63;;;;;;;21.71;83.39;101099.84;21018571;28;21584;-80
2023/06/25 17:38:55;;;;;;;3.88;3.47;;;;;;;21.70;83.55;101100.84;20948199;28;20417;-81
2023/06/25 17:48:58;;;;;;;4.88;3.88;;;;;;;21.68;83.75;101102.88;20977955;28;20071;-81
2023/06/25 17:58:59;;;;;;;3.50;3.15;;;;;;;21.65;83.24;101105.88;20967320;28;20581;-81
2023/06/25 18:09:01;;;;;;;3.80;3.45;;;;;;;21.64;83.53;101109.59;20976923;28;20057;-81
2023/06/25 18:19:03;;;;;;;4.30;3.60;;;;;;;21.61;83.34;101096.31;21015500;28;20055;-81
2023/06/25 18:29:04;;;;;;;4.25;3.85;;;;;;;21.58;83.86;101090.22;20976809;28;20040;-82
2023/06/25 18:39:08;;;;;;;3.45;3.15;;;;;;;21.58;84.98;101079.38;20956850;28;20072;-81
2023/06/25 18:49:09;;;;;;;4.25;3.47;;;;;;;21.61;84.99;101083.66;20906328;28;20520;-80
2023/06/25 18:59:11;;;;;;;4.15;3.35;;;;;;;21.64;85.84;101071.66;20955472;28;20512;-81
2023/06/25 19:09:15;;;;;;;4.00;3.60;;;;;;;21.63;86.48;101064.50;20958017;28;20045;-80
2023/06/25 19:19:16;;;;;;;3.83;3.43;;;;;;;21.63;85.53;101059.94;20965867;28;20425;-78
2023/06/25 19:29:18;;;;;;;3.95;3.53;;;;;;;21.61;85.12;101052.97;20978916;28;20394;-79
2023/06/25 19:39:20;;;;;;;3.80;3.40;;;;;;;21.56;84.92;101046.19;20950878;28;20048;-79
2023/06/25 19:49:22;;;;;;;3.60;3.30;;;;;;;21.55;84.87;101051.75;20930892;28;20464;-78
2023/06/25 19:59:23;;;;;;;3.95;3.30;;;;;;;21.54;84.68;101050.06;20970031;28;20037;-79
2023/06/25 20:09:25;;;;;;;3.60;3.30;;;;;;;21.51;84.59;101045.81;20958201;28;20091;-78
2023/06/25 20:19:27;;;;;;;4.15;3.53;;;;;;;21.50;84.29;101044.09;21041660;28;20052;-78
2023/06/25 20:29:29;;;;;;;3.55;3.25;;;;;;;21.48;84.74;101051.53;21046908;28;20048;-78
2023/06/25 20:39:31;;;;;;;3.60;3.30;;;;;;;21.48;85.23;101042.56;21026942;28;20560;-78
2023/06/25 20:49:33;;;;;;;4.53;3.78;;;;;;;21.46;85.69;101050.84;20984536;28;20056;-78
2023/06/25 20:59:34;;;;;;;3.90;3.60;;;;;;;21.44;86.02;101044.72;20984287;28;20048;-78
2023/06/25 21:09:36;;;;;;;3.88;3.30;;;;;;;21.44;85.98;101044.72;20982028;28;20039;-78
2023/06/25 21:19:37;;;;;;;4.00;3.55;;;;;;;21.41;85.48;101042.34;21025566;28;20048;-78
2023/06/25 21:29:39;;;;;;;3.80;3.50;;;;;;;21.35;85.25;101029.44;20982561;28;20049;-78
2023/06/25 21:39:41;;;;;;;3.72;3.40;;;;;;;21.37;86.04;101027.41;20983873;28;20489;-78
2023/06/25 21:49:43;;;;;;;3.67;3.30;;;;;;;21.36;85.65;101025.72;20981053;28;20052;-78
2023/06/25 21:59:45;;;;;;;4.22;3.83;;;;;;;21.36;85.84;101025.72;20959663;28;20599;-78
2023/06/25 22:09:46;;;;;;;4.05;3.65;;;;;;;21.34;85.49;101025.84;20990831;28;20063;-78
2023/06/25 22:19:49;;;;;;;4.40;4.00;;;;;;;21.32;84.85;101013.50;21065781;28;20060;-78
2023/06/25 22:29:50;;;;;;;3.75;3.45;;;;;;;21.30;84.97;101010.94;20910771;28;20061;-78
2023/06/25 22:39:52;;;;;;;3.70;3.30;;;;;;;21.27;84.79;101009.41;20996867;28;20048;-78
2023/06/25 22:49:54;;;;;;;4.13;3.83;;;;;;;21.26;84.71;101006.84;21076973;28;20052;-78
2023/06/25 22:59:56;;;;;;;4.10;3.70;;;;;;;21.25;84.83;100986.19;20960503;28;20067;-78
2023/06/25 23:09:57;;;;;;;3.75;3.45;;;;;;;21.23;84.65;100974.66;20963298;28;20071;-78
2023/06/25 23:19:59;;;;;;;4.07;3.70;;;;;;;21.21;84.90;100965.84;20906594;28;20475;-78
2023/06/25 23:30:02;;;;;;;4.43;4.03;;;;;;;21.20;84.79;100961.44;20907414;28;20106;-78
2023/06/25 23:40:04;;;;;;;4.15;3.75;;;;;;;21.19;84.68;100944.31;20996000;28;20055;-78
2023/06/25 23:50:06;;;;;;;4.00;3.60;;;;;;;21.18;85.37;100928.25;20952447;28;20052;-78
